sensor_id;sensor_type;location;lat;lon;timestamp;P1;durP1;ratioP1;P2;durP2;ratioP2
26562;SDS011;14217;50.986;5.826;2023-06-01T00:00:55;0.73;;;0.60;;
26562;SDS011;14217;50.986;5.826;2023-06-01T00:05:57;0.70;;;0.70;;
26562;SDS011;14217;50.986;5.826;2023-06-01T00:10:59;2.88;;;0.70;;
26562;SDS011;14217;50.986;5.826;2023-06-01T00:16:02;1.15;;;0.60;;
26562;SDS011;14217;50.986;5.826;2023-06-01T00:21:04;1.98;;;0.95;;
26562;SDS011;14217;50.986;5.826;2023-06-01T00:26:07;1.25;;;0.50;;
26562;SDS011;14217;50.986;5.826;2023-06-01T00:31:09;0.70;;;0.60;;
26562;SDS011;14217;50.986;5.826;2023-06-01T00:36:11;0.52;;;0.50;;
26562;SDS011;14217;50.986;5.826;2023-06-01T00:41:13;0.80;;;0.50;;
26562;SDS011;14217;50.986;5.826;2023-06-01T00:46:15;1.88;;;0.52;;
26562;SDS011;14217;50.986;5.826;2023-06-01T00:51:17;0.90;;;0.60;;
26562;SDS011;14217;50.986;5.826;2023-06-01T00:56:20;1.88;;;0.70;;
26562;SDS011;14217;50.986;5.826;2023-06-01T01:01:23;0.50;;;0.50;;
26562;SDS011;14217;50.986;5.826;2023-06-01T01:06:27;0.70;;;0.65;;
26562;SDS011;14217;50.986;5.826;2023-06-01T01:11:42;0.98;;;0.50;;
26562;SDS011;14217;50.986;5.826;2023-06-01T01:33:07;0.52;;;0.50;;
26562;SDS011;14217;50.986;5.826;2023-06-01T01:38:11;0.65;;;0.60;;
26562;SDS011;14217;50.986;5.826;2023-06-01T01:43:13;1.45;;;1.02;;
26562;SDS011;14217;50.986;5.826;2023-06-01T01:53:24;1.20;;;0.52;;
26562;SDS011;14217;50.986;5.826;2023-06-01T01:58:28;1.00;;;0.70;;
26562;SDS011;14217;50.986;5.826;2023-06-01T02:03:31;1.25;;;0.70;;
26562;SDS011;14217;50.986;5.826;2023-06-01T02:08:33;0.57;;;0.50;;
26562;SDS011;14217;50.986;5.826;2023-06-01T02:13:35;2.38;;;0.95;;
26562;SDS011;14217;50.986;5.826;2023-06-01T02:18:37;0.57;;;0.40;;
26562;SDS011;14217;50.986;5.826;2023-06-01T02:23:40;0.88;;;0.82;;
26562;SDS011;14217;50.986;5.826;2023-06-01T02:28:43;1.20;;;0.82;;
26562;SDS011;14217;50.986;5.826;2023-06-01T02:33:46;1.65;;;0.70;;
26562;SDS011;14217;50.986;5.826;2023-06-01T02:38:48;0.60;;;0.60;;
26562;SDS011;14217;50.986;5.826;2023-06-01T02:43:50;0.80;;;0.80;;
26562;SDS011;14217;50.986;5.826;2023-06-01T02:48:52;0.52;;;0.50;;
26562;SDS011;14217;50.986;5.826;2023-06-01T02:53:54;1.27;;;0.70;;
26562;SDS011;14217;50.986;5.826;2023-06-01T02:58:56;0.85;;;0.70;;
26562;SDS011;14217;50.986;5.826;2023-06-01T03:03:58;3.50;;;0.88;;
26562;SDS011;14217;50.986;5.826;2023-06-01T03:09:01;0.95;;;0.85;;
26562;SDS011;14217;50.986;5.826;2023-06-01T03:14:03;0.50;;;0.50;;
26562;SDS011;14217;50.986;5.826;2023-06-01T03:19:05;1.13;;;0.82;;
26562;SDS011;14217;50.986;5.826;2023-06-01T03:24:07;0.70;;;0.70;;
26562;SDS011;14217;50.986;5.826;2023-06-01T03:29:09;2.10;;;1.33;;
26562;SDS011;14217;50.986;5.826;2023-06-01T03:34:12;1.08;;;0.63;;
26562;SDS011;14217;50.986;5.826;2023-06-01T03:39:14;1.70;;;0.63;;
26562;SDS011;14217;50.986;5.826;2023-06-01T03:44:17;0.82;;;0.70;;
26562;SDS011;14217;50.986;5.826;2023-06-01T03:49:19;1.48;;;0.88;;
26562;SDS011;14217;50.986;5.826;2023-06-01T03:54:21;1.52;;;0.82;;
26562;SDS011;14217;50.986;5.826;2023-06-01T03:59:23;1.02;;;0.70;;
26562;SDS011;14217;50.986;5.826;2023-06-01T04:04:26;1.05;;;0.80;;
26562;SDS011;14217;50.986;5.826;2023-06-01T04:09:31;0.65;;;0.65;;
26562;SDS011;14217;50.986;5.826;2023-06-01T04:14:34;1.52;;;0.82;;
26562;SDS011;14217;50.986;5.826;2023-06-01T04:19:37;0.57;;;0.57;;
26562;SDS011;14217;50.986;5.826;2023-06-01T04:24:40;0.77;;;0.60;;
26562;SDS011;14217;50.986;5.826;2023-06-01T04:29:44;0.70;;;0.70;;
26562;SDS011;14217;50.986;5.826;2023-06-01T04:34:53;1.60;;;0.90;;
26562;SDS011;14217;50.986;5.826;2023-06-01T04:39:56;1.42;;;1.33;;
26562;SDS011;14217;50.986;5.826;2023-06-01T04:44:58;1.00;;;0.98;;
26562;SDS011;14217;50.986;5.826;2023-06-01T04:50:00;2.50;;;1.35;;
26562;SDS011;14217;50.986;5.826;2023-06-01T04:55:03;1.42;;;1.30;;
26562;SDS011;14217;50.986;5.826;2023-06-01T05:00:09;2.05;;;1.17;;
26562;SDS011;14217;50.986;5.826;2023-06-01T05:05:15;2.05;;;1.38;;
26562;SDS011;14217;50.986;5.826;2023-06-01T05:10:18;1.48;;;1.38;;
26562;SDS011;14217;50.986;5.826;2023-06-01T05:15:20;2.03;;;1.85;;
26562;SDS011;14217;50.986;5.826;2023-06-01T05:20:22;2.03;;;1.70;;
26562;SDS011;14217;50.986;5.826;2023-06-01T05:25:24;1.83;;;1.73;;
26562;SDS011;14217;50.986;5.826;2023-06-01T05:30:27;3.28;;;2.38;;
26562;SDS011;14217;50.986;5.826;2023-06-01T05:35:29;2.17;;;1.98;;
26562;SDS011;14217;50.986;5.826;2023-06-01T05:40:31;2.15;;;1.88;;
26562;SDS011;14217;50.986;5.826;2023-06-01T05:45:33;3.05;;;2.42;;
26562;SDS011;14217;50.986;5.826;2023-06-01T05:50:36;2.95;;;2.10;;
26562;SDS011;14217;50.986;5.826;2023-06-01T05:55:38;2.75;;;2.55;;
26562;SDS011;14217;50.986;5.826;2023-06-01T06:00:41;2.95;;;2.53;;
26562;SDS011;14217;50.986;5.826;2023-06-01T06:05:43;2.30;;;2.10;;
26562;SDS011;14217;50.986;5.826;2023-06-01T06:10:45;2.75;;;2.55;;
26562;SDS011;14217;50.986;5.826;2023-06-01T06:15:47;2.15;;;2.03;;
26562;SDS011;14217;50.986;5.826;2023-06-01T06:20:49;2.70;;;2.50;;
26562;SDS011;14217;50.986;5.826;2023-06-01T06:25:51;3.25;;;2.95;;
26562;SDS011;14217;50.986;5.826;2023-06-01T06:30:54;3.55;;;2.67;;
26562;SDS011;14217;50.986;5.826;2023-06-01T06:35:58;3.00;;;2.70;;
26562;SDS011;14217;50.986;5.826;2023-06-01T06:41:00;2.70;;;2.50;;
26562;SDS011;14217;50.986;5.826;2023-06-01T06:46:03;3.38;;;3.08;;
26562;SDS011;14217;50.986;5.826;2023-06-01T06:51:05;3.05;;;2.78;;
26562;SDS011;14217;50.986;5.826;2023-06-01T06:56:07;2.00;;;1.90;;
26562;SDS011;14217;50.986;5.826;2023-06-01T07:01:09;3.50;;;3.00;;
26562;SDS011;14217;50.986;5.826;2023-06-01T07:06:12;3.22;;;2.53;;
26562;SDS011;14217;50.986;5.826;2023-06-01T07:11:14;5.47;;;2.17;;
26562;SDS011;14217;50.986;5.826;2023-06-01T07:16:16;3.85;;;2.42;;
26562;SDS011;14217;50.986;5.826;2023-06-01T07:21:18;2.08;;;1.92;;
26562;SDS011;14217;50.986;5.826;2023-06-01T07:26:21;2.67;;;2.47;;
26562;SDS011;14217;50.986;5.826;2023-06-01T07:31:26;2.40;;;2.20;;
26562;SDS011;14217;50.986;5.826;2023-06-01T07:36:29;3.20;;;2.08;;
26562;SDS011;14217;50.986;5.826;2023-06-01T07:41:38;2.47;;;1.85;;
26562;SDS011;14217;50.986;5.826;2023-06-01T07:46:44;2.38;;;2.17;;
26562;SDS011;14217;50.986;5.826;2023-06-01T07:51:47;1.98;;;1.75;;
26562;SDS011;14217;50.986;5.826;2023-06-01T07:56:50;10.45;;;4.32;;
26562;SDS011;14217;50.986;5.826;2023-06-01T08:01:52;6.43;;;4.55;;
26562;SDS011;14217;50.986;5.826;2023-06-01T08:06:55;32.65;;;4.50;;
26562;SDS011;14217;50.986;5.826;2023-06-01T08:11:59;19.88;;;4.65;;
26562;SDS011;14217;50.986;5.826;2023-06-01T08:17:01;38.13;;;4.57;;
26562;SDS011;14217;50.986;5.826;2023-06-01T08:22:04;14.75;;;2.60;;
26562;SDS011;14217;50.986;5.826;2023-06-01T08:27:18;5.03;;;2.65;;
26562;SDS011;14217;50.986;5.826;2023-06-01T08:32:26;16.38;;;3.45;;
26562;SDS011;14217;50.986;5.826;2023-06-01T08:37:28;3.63;;;2.10;;
26562;SDS011;14217;50.986;5.826;2023-06-01T08:42:39;3.25;;;1.75;;
26562;SDS011;14217;50.986;5.826;2023-06-01T08:47:47;4.70;;;2.47;;
26562;SDS011;14217;50.986;5.826;2023-06-01T08:52:52;15.80;;;3.15;;
26562;SDS011;14217;50.986;5.826;2023-06-01T08:57:57;4.60;;;1.98;;
26562;SDS011;14217;50.986;5.826;2023-06-01T09:02:59;4.40;;;2.90;;
26562;SDS011;14217;50.986;5.826;2023-06-01T09:08:02;21.42;;;3.50;;
26562;SDS011;14217;50.986;5.826;2023-06-01T09:13:05;4.57;;;2.33;;
26562;SDS011;14217;50.986;5.826;2023-06-01T09:18:10;5.20;;;2.13;;
26562;SDS011;14217;50.986;5.826;2023-06-01T09:23:22;6.18;;;1.98;;
26562;SDS011;14217;50.986;5.826;2023-06-01T09:28:25;6.20;;;2.85;;
26562;SDS011;14217;50.986;5.826;2023-06-01T09:33:27;2.90;;;2.22;;
26562;SDS011;14217;50.986;5.826;2023-06-01T09:38:29;4.88;;;3.22;;
26562;SDS011;14217;50.986;5.826;2023-06-01T09:43:33;9.43;;;3.28;;
26562;SDS011;14217;50.986;5.826;2023-06-01T09:48:39;6.22;;;3.55;;
26562;SDS011;14217;50.986;5.826;2023-06-01T09:53:42;8.63;;;3.13;;
26562;SDS011;14217;50.986;5.826;2023-06-01T09:58:45;8.88;;;4.05;;
26562;SDS011;14217;50.986;5.826;2023-06-01T10:03:47;6.97;;;3.58;;
26562;SDS011;14217;50.986;5.826;2023-06-01T10:08:52;8.88;;;3.40;;
26562;SDS011;14217;50.986;5.826;2023-06-01T10:13:56;15.48;;;3.53;;
26562;SDS011;14217;50.986;5.826;2023-06-01T10:18:59;7.40;;;3.67;;
26562;SDS011;14217;50.986;5.826;2023-06-01T10:24:01;4.80;;;3.53;;
26562;SDS011;14217;50.986;5.826;2023-06-01T10:29:04;5.70;;;4.05;;
26562;SDS011;14217;50.986;5.826;2023-06-01T10:34:08;4.63;;;2.75;;
26562;SDS011;14217;50.986;5.826;2023-06-01T10:39:21;3.75;;;3.33;;
26562;SDS011;14217;50.986;5.826;2023-06-01T10:55:18;4.57;;;2.80;;
26562;SDS011;14217;50.986;5.826;2023-06-01T11:00:19;16.13;;;3.03;;
26562;SDS011;14217;50.986;5.826;2023-06-01T11:21:17;3.33;;;3.03;;
26562;SDS011;14217;50.986;5.826;2023-06-01T11:26:23;6.70;;;2.97;;
26562;SDS011;14217;50.986;5.826;2023-06-01T11:31:35;4.97;;;2.60;;
26562;SDS011;14217;50.986;5.826;2023-06-01T11:36:40;3.42;;;2.30;;
26562;SDS011;14217;50.986;5.826;2023-06-01T11:42:05;3.53;;;2.15;;
26562;SDS011;14217;50.986;5.826;2023-06-01T11:47:09;3.47;;;2.65;;
26562;SDS011;14217;50.986;5.826;2023-06-01T11:52:12;4.30;;;2.60;;
26562;SDS011;14217;50.986;5.826;2023-06-01T11:57:15;4.25;;;2.85;;
26562;SDS011;14217;50.986;5.826;2023-06-01T12:02:21;5.00;;;2.38;;
26562;SDS011;14217;50.986;5.826;2023-06-01T12:07:28;4.60;;;3.08;;
26562;SDS011;14217;50.986;5.826;2023-06-01T12:12:31;5.95;;;3.28;;
26562;SDS011;14217;50.986;5.826;2023-06-01T12:18:08;3.85;;;2.05;;
26562;SDS011;14217;50.986;5.826;2023-06-01T12:23:21;3.75;;;2.65;;
26562;SDS011;14217;50.986;5.826;2023-06-01T12:28:24;4.13;;;2.13;;
26562;SDS011;14217;50.986;5.826;2023-06-01T12:33:31;3.92;;;2.63;;
26562;SDS011;14217;50.986;5.826;2023-06-01T12:38:36;4.22;;;2.78;;
26562;SDS011;14217;50.986;5.826;2023-06-01T12:43:43;4.03;;;3.17;;
26562;SDS011;14217;50.986;5.826;2023-06-01T12:48:46;5.00;;;4.03;;
26562;SDS011;14217;50.986;5.826;2023-06-01T12:53:48;9.68;;;3.50;;
26562;SDS011;14217;50.986;5.826;2023-06-01T12:58:50;3.92;;;3.33;;
26562;SDS011;14217;50.986;5.826;2023-06-01T13:03:52;4.40;;;2.72;;
26562;SDS011;14217;50.986;5.826;2023-06-01T13:08:55;5.47;;;3.28;;
26562;SDS011;14217;50.986;5.826;2023-06-01T13:13:57;9.13;;;2.97;;
26562;SDS011;14217;50.986;5.826;2023-06-01T13:18:59;3.05;;;2.50;;
26562;SDS011;14217;50.986;5.826;2023-06-01T13:24:03;3.20;;;2.90;;
26562;SDS011;14217;50.986;5.826;2023-06-01T13:29:05;3.45;;;2.47;;
26562;SDS011;14217;50.986;5.826;2023-06-01T13:34:08;4.38;;;2.63;;
26562;SDS011;14217;50.986;5.826;2023-06-01T13:39:10;7.32;;;2.63;;
26562;SDS011;14217;50.986;5.826;2023-06-01T13:44:12;2.42;;;1.95;;
26562;SDS011;14217;50.986;5.826;2023-06-01T13:49:14;2.80;;;2.10;;
26562;SDS011;14217;50.986;5.826;2023-06-01T13:54:17;4.13;;;2.55;;
26562;SDS011;14217;50.986;5.826;2023-06-01T13:59:19;1.73;;;1.45;;
26562;SDS011;14217;50.986;5.826;2023-06-01T14:04:21;4.13;;;2.67;;
26562;SDS011;14217;50.986;5.826;2023-06-01T14:09:24;3.92;;;2.45;;
26562;SDS011;14217;50.986;5.826;2023-06-01T14:14:26;4.00;;;2.38;;
26562;SDS011;14217;50.986;5.826;2023-06-01T14:19:28;6.38;;;2.33;;
26562;SDS011;14217;50.986;5.826;2023-06-01T14:24:30;1.95;;;1.75;;
26562;SDS011;14217;50.986;5.826;2023-06-01T14:29:33;3.20;;;1.98;;
26562;SDS011;14217;50.986;5.826;2023-06-01T14:34:35;6.45;;;2.28;;
26562;SDS011;14217;50.986;5.826;2023-06-01T14:39:37;3.80;;;1.60;;
26562;SDS011;14217;50.986;5.826;2023-06-01T14:44:39;2.30;;;2.08;;
26562;SDS011;14217;50.986;5.826;2023-06-01T14:49:45;5.22;;;2.60;;
26562;SDS011;14217;50.986;5.826;2023-06-01T14:54:47;3.35;;;1.98;;
26562;SDS011;14217;50.986;5.826;2023-06-01T14:59:50;7.45;;;2.58;;
26562;SDS011;14217;50.986;5.826;2023-06-01T15:05:05;3.17;;;2.40;;
26562;SDS011;14217;50.986;5.826;2023-06-01T15:10:07;5.72;;;2.35;;
26562;SDS011;14217;50.986;5.826;2023-06-01T15:15:11;3.88;;;2.00;;
26562;SDS011;14217;50.986;5.826;2023-06-01T15:20:14;4.50;;;2.92;;
26562;SDS011;14217;50.986;5.826;2023-06-01T15:25:16;21.27;;;3.85;;
26562;SDS011;14217;50.986;5.826;2023-06-01T15:30:18;11.05;;;2.85;;
26562;SDS011;14217;50.986;5.826;2023-06-01T15:35:22;6.57;;;3.03;;
26562;SDS011;14217;50.986;5.826;2023-06-01T15:40:28;11.00;;;2.97;;
26562;SDS011;14217;50.986;5.826;2023-06-01T15:45:30;25.08;;;3.83;;
26562;SDS011;14217;50.986;5.826;2023-06-01T15:50:32;3.30;;;2.70;;
26562;SDS011;14217;50.986;5.826;2023-06-01T15:55:34;7.47;;;3.40;;
26562;SDS011;14217;50.986;5.826;2023-06-01T16:00:37;3.10;;;2.47;;
26562;SDS011;14217;50.986;5.826;2023-06-01T16:05:39;6.30;;;2.30;;
26562;SDS011;14217;50.986;5.826;2023-06-01T16:10:42;4.72;;;2.65;;
26562;SDS011;14217;50.986;5.826;2023-06-01T16:15:45;3.88;;;2.65;;
26562;SDS011;14217;50.986;5.826;2023-06-01T16:20:47;3.83;;;2.17;;
26562;SDS011;14217;50.986;5.826;2023-06-01T16:25:49;9.30;;;2.95;;
26562;SDS011;14217;50.986;5.826;2023-06-01T16:30:51;3.40;;;1.85;;
26562;SDS011;14217;50.986;5.826;2023-06-01T16:35:53;2.42;;;2.20;;
26562;SDS011;14217;50.986;5.826;2023-06-01T16:40:55;2.60;;;2.35;;
26562;SDS011;14217;50.986;5.826;2023-06-01T16:45:57;6.60;;;2.22;;
26562;SDS011;14217;50.986;5.826;2023-06-01T16:51:00;14.35;;;2.08;;
26562;SDS011;14217;50.986;5.826;2023-06-01T16:56:02;4.15;;;2.17;;
26562;SDS011;14217;50.986;5.826;2023-06-01T17:01:05;4.38;;;2.25;;
26562;SDS011;14217;50.986;5.826;2023-06-01T17:06:07;6.88;;;2.03;;
26562;SDS011;14217;50.986;5.826;2023-06-01T17:11:09;2.65;;;1.60;;
26562;SDS011;14217;50.986;5.826;2023-06-01T17:16:11;2.25;;;1.95;;
26562;SDS011;14217;50.986;5.826;2023-06-01T17:21:13;3.80;;;1.80;;
26562;SDS011;14217;50.986;5.826;2023-06-01T17:26:16;5.78;;;1.92;;
26562;SDS011;14217;50.986;5.826;2023-06-01T17:31:18;6.15;;;2.58;;
26562;SDS011;14217;50.986;5.826;2023-06-01T17:36:21;5.10;;;3.08;;
26562;SDS011;14217;50.986;5.826;2023-06-01T17:41:23;5.50;;;2.95;;
26562;SDS011;14217;50.986;5.826;2023-06-01T17:46:26;3.28;;;2.05;;
26562;SDS011;14217;50.986;5.826;2023-06-01T17:51:29;12.43;;;2.33;;
26562;SDS011;14217;50.986;5.826;2023-06-01T17:56:32;2.72;;;1.90;;
26562;SDS011;14217;50.986;5.826;2023-06-01T18:01:35;16.85;;;3.35;;
26562;SDS011;14217;50.986;5.826;2023-06-01T18:06:37;4.20;;;2.70;;
26562;SDS011;14217;50.986;5.826;2023-06-01T18:11:39;12.32;;;2.47;;
26562;SDS011;14217;50.986;5.826;2023-06-01T18:16:42;9.50;;;2.38;;
26562;SDS011;14217;50.986;5.826;2023-06-01T18:21:44;21.92;;;2.80;;
26562;SDS011;14217;50.986;5.826;2023-06-01T18:26:46;18.73;;;3.17;;
26562;SDS011;14217;50.986;5.826;2023-06-01T18:31:49;23.23;;;3.25;;
26562;SDS011;14217;50.986;5.826;2023-06-01T18:36:52;9.77;;;2.53;;
26562;SDS011;14217;50.986;5.826;2023-06-01T18:41:54;8.93;;;3.13;;
26562;SDS011;14217;50.986;5.826;2023-06-01T18:46:56;6.05;;;2.08;;
26562;SDS011;14217;50.986;5.826;2023-06-01T18:51:59;16.63;;;2.33;;
26562;SDS011;14217;50.986;5.826;2023-06-01T18:57:02;4.55;;;2.13;;
26562;SDS011;14217;50.986;5.826;2023-06-01T19:02:04;3.38;;;1.98;;
26562;SDS011;14217;50.986;5.826;2023-06-01T19:12:33;3.83;;;1.80;;
26562;SDS011;14217;50.986;5.826;2023-06-01T19:17:36;2.90;;;1.70;;
26562;SDS011;14217;50.986;5.826;2023-06-01T19:22:38;5.53;;;1.95;;
26562;SDS011;14217;50.986;5.826;2023-06-01T19:27:41;2.58;;;1.95;;
26562;SDS011;14217;50.986;5.826;2023-06-01T19:32:44;1.85;;;1.25;;
26562;SDS011;14217;50.986;5.826;2023-06-01T19:37:46;4.88;;;1.70;;
26562;SDS011;14217;50.986;5.826;2023-06-01T19:42:48;8.55;;;2.28;;
26562;SDS011;14217;50.986;5.826;2023-06-01T19:47:51;3.13;;;2.00;;
26562;SDS011;14217;50.986;5.826;2023-06-01T19:52:54;2.42;;;1.38;;
26562;SDS011;14217;50.986;5.826;2023-06-01T19:57:56;2.50;;;1.40;;
26562;SDS011;14217;50.986;5.826;2023-06-01T20:02:59;3.25;;;1.40;;
26562;SDS011;14217;50.986;5.826;2023-06-01T20:08:06;2.88;;;1.38;;
26562;SDS011;14217;50.986;5.826;2023-06-01T20:13:11;1.67;;;1.13;;
26562;SDS011;14217;50.986;5.826;2023-06-01T20:18:13;2.13;;;1.10;;
26562;SDS011;14217;50.986;5.826;2023-06-01T20:23:16;2.35;;;1.00;;
26562;SDS011;14217;50.986;5.826;2023-06-01T20:28:45;1.70;;;1.05;;
26562;SDS011;14217;50.986;5.826;2023-06-01T20:33:54;2.80;;;1.48;;
26562;SDS011;14217;50.986;5.826;2023-06-01T20:38:59;1.38;;;0.93;;
26562;SDS011;14217;50.986;5.826;2023-06-01T20:44:02;1.08;;;0.98;;
26562;SDS011;14217;50.986;5.826;2023-06-01T20:49:04;2.33;;;1.10;;
26562;SDS011;14217;50.986;5.826;2023-06-01T20:54:09;1.17;;;0.98;;
26562;SDS011;14217;50.986;5.826;2023-06-01T20:59:28;1.25;;;0.80;;
26562;SDS011;14217;50.986;5.826;2023-06-01T21:04:32;2.47;;;0.93;;
26562;SDS011;14217;50.986;5.826;2023-06-01T21:09:38;1.55;;;1.05;;
26562;SDS011;14217;50.986;5.826;2023-06-01T21:14:41;2.88;;;1.35;;
26562;SDS011;14217;50.986;5.826;2023-06-01T21:19:43;1.58;;;1.15;;
26562;SDS011;14217;50.986;5.826;2023-06-01T21:24:46;1.00;;;0.70;;
26562;SDS011;14217;50.986;5.826;2023-06-01T21:29:48;1.17;;;1.08;;
26562;SDS011;14217;50.986;5.826;2023-06-01T21:34:51;2.88;;;0.82;;
26562;SDS011;14217;50.986;5.826;2023-06-01T21:39:53;1.25;;;0.90;;
26562;SDS011;14217;50.986;5.826;2023-06-01T21:44:55;0.93;;;0.60;;
26562;SDS011;14217;50.986;5.826;2023-06-01T21:49:57;2.10;;;0.75;;
26562;SDS011;14217;50.986;5.826;2023-06-01T21:54:59;0.65;;;0.52;;
26562;SDS011;14217;50.986;5.826;2023-06-01T22:00:02;0.88;;;0.80;;
26562;SDS011;14217;50.986;5.826;2023-06-01T22:05:06;0.93;;;0.60;;
26562;SDS011;14217;50.986;5.826;2023-06-01T22:10:08;1.25;;;1.00;;
26562;SDS011;14217;50.986;5.826;2023-06-01T22:15:10;0.60;;;0.60;;
26562;SDS011;14217;50.986;5.826;2023-06-01T22:20:12;0.55;;;0.40;;
26562;SDS011;14217;50.986;5.826;2023-06-01T22:25:15;0.85;;;0.52;;
26562;SDS011;14217;50.986;5.826;2023-06-01T22:30:17;1.33;;;0.77;;
26562;SDS011;14217;50.986;5.826;2023-06-01T22:35:19;1.88;;;0.60;;
26562;SDS011;14217;50.986;5.826;2023-06-01T22:40:23;1.20;;;0.80;;
26562;SDS011;14217;50.986;5.826;2023-06-01T22:45:25;1.73;;;0.70;;
26562;SDS011;14217;50.986;5.826;2023-06-01T22:50:28;0.95;;;0.45;;
26562;SDS011;14217;50.986;5.826;2023-06-01T22:55:30;0.88;;;0.68;;
26562;SDS011;14217;50.986;5.826;2023-06-01T23:00:33;0.80;;;0.80;;
26562;SDS011;14217;50.986;5.826;2023-06-01T23:05:35;2.83;;;0.85;;
26562;SDS011;14217;50.986;5.826;2023-06-01T23:10:42;1.10;;;1.00;;
26562;SDS011;14217;50.986;5.826;2023-06-01T23:15:50;0.98;;;0.80;;
26562;SDS011;14217;50.986;5.826;2023-06-01T23:20:56;1.00;;;0.60;;
26562;SDS011;14217;50.986;5.826;2023-06-01T23:26:00;0.70;;;0.70;;
26562;SDS011;14217;50.986;5.826;2023-06-01T23:31:03;0.52;;;0.47;;
26562;SDS011;14217;50.986;5.826;2023-06-01T23:36:06;0.75;;;0.60;;
26562;SDS011;14217;50.986;5.826;2023-06-01T23:41:09;0.60;;;0.43;;
26562;SDS011;14217;50.986;5.826;2023-06-01T23:46:12;0.40;;;0.40;;
26562;SDS011;14217;50.986;5.826;2023-06-01T23:51:14;0.73;;;0.70;;
26562;SDS011;14217;50.986;5.826;2023-06-01T23:56:17;0.65;;;0.60;;
